Hauptseite
METAR-TAF:

METAR-TAF

Flughäfen :

London, England

London City Airport

Breite: 51-30N, Länge: 000-03E, Höhe: 5 m

Beobachtung

Neuester Wetterbericht von vor 42 Minuten, um 14:20 UTC
Wind 15 kt aus West
Temperatur 7°C
Luftfeuchtigkeit 57%
Luftdruck 1008 hPa
Sichtweite 10 km oder mehr
Aufgelockert bewölkt in der Höhe von 3400 ft
Durchbrochene Bewölkung in der Höhe von 4100 ft

METAR: EGLC 191420Z AUTO 26015KT 9999 SCT034 BKN041 07/M01 Q1008

Zeit: 15:02 (15:02 UTC)

Prognose

Neuester Wetterbericht von vor 1 Stunde und 1 Minuten, um 14:01 UTC
Gültige Prognose vom 19 um 15 UTC bis 19 um 22 UTC
Wind 12 kt aus West/Südwest
Sichtweite 10 km oder mehr
Leicht bewölkt in der Höhe von 3000 ft
Zeitweise
vom 19 um 15 UTC bis 19 um 20 UTC
Wind 17 kt aus West, Böen bis zu 27 kt

TAF: EGLC 191401Z 1915/1922 25012KT 9999 FEW030 TEMPO 1915/1920 26017G27KT

Wetterbeobachtungen und Prognosen von mehr als 4000 Flughäfen (METAR und TAF Bericht).

Die verfügbaren Stationen werden durch gelbe und rote Markierungen auf der Karte dargestellt.

Führen Sie die Maus auf sie, um den Namen der Station zu sehen.

Darauf klicken, um die Beobachtung von Wetterbeobachtungen und Prognosen zu sehen.

Um die Karte zu ändern : klicken Sie auf den grünen Tasten mit einem schwarzen Kreuz Zum Vergrößern, auf den grünen Button mit einem Gedankenstrich zu verkleinern, oder auf die grünen Pfeile für benachbarte Karten.


METAR-TAF: